createdAt,value
2023-03-07T00:05:15.164Z,29.92
2023-03-07T00:12:17.224Z,25.10
2023-03-07T00:19:19.132Z,27.90
2023-03-07T00:26:23.576Z,24.75
2023-03-07T00:33:25.658Z,23.17
2023-03-07T00:40:27.883Z,21.70
2023-03-07T00:47:29.948Z,20.67
2023-03-07T00:54:32.032Z,21.17
2023-03-07T01:01:34.124Z,20.98
2023-03-07T01:08:36.410Z,19.20
2023-03-07T01:15:39.279Z,19.30
2023-03-07T01:22:41.239Z,18.48
2023-03-07T01:29:43.258Z,19.83
2023-03-07T01:36:45.284Z,16.55
2023-03-07T01:43:47.381Z,15.25
2023-03-07T01:50:49.628Z,18.48
2023-03-07T01:57:52.641Z,16.55
2023-03-07T02:05:00.480Z,16.73
2023-03-07T02:12:02.447Z,18.85
2023-03-07T02:19:10.762Z,14.45
2023-03-07T02:26:31.120Z,16.35
2023-03-07T02:33:33.075Z,14.75
2023-03-07T02:40:35.066Z,15.98
2023-03-07T02:47:37.123Z,16.20
2023-03-07T02:54:39.086Z,15.27
2023-03-07T03:01:41.091Z,15.50
2023-03-07T03:08:43.095Z,13.50
2023-03-07T03:15:45.121Z,14.32
2023-03-07T03:22:47.293Z,12.23
2023-03-07T03:29:49.540Z,13.98
2023-03-07T03:36:51.641Z,16.05
2023-03-07T03:43:53.581Z,12.85
2023-03-07T03:51:12.758Z,15.98
2023-03-07T03:58:14.739Z,12.00
2023-03-07T04:05:17.281Z,13.70
2023-03-07T04:12:19.196Z,16.02
2023-03-07T04:19:22.145Z,13.98
2023-03-07T04:26:24.432Z,11.98
2023-03-07T04:33:27.575Z,10.63
2023-03-07T04:40:29.485Z,9.40
2023-03-07T04:47:31.448Z,11.63
2023-03-07T04:54:33.664Z,13.25
2023-03-07T05:01:35.651Z,14.80
2023-03-07T05:08:37.647Z,13.32
2023-03-07T05:15:39.611Z,16.80
2023-03-07T05:22:41.593Z,15.10
2023-03-07T05:29:43.594Z,17.92
2023-03-07T05:36:45.675Z,19.55
2023-03-07T05:43:47.684Z,17.13
2023-03-07T05:50:49.651Z,16.90
2023-03-07T05:57:51.731Z,18.60
2023-03-07T06:04:53.739Z,18.40
2023-03-07T06:11:55.793Z,19.95
2023-03-07T06:18:57.756Z,17.60
2023-03-07T06:26:00.776Z,17.30
2023-03-07T06:33:02.766Z,15.60
2023-03-07T06:40:06.550Z,16.52
2023-03-07T06:47:08.692Z,17.52
2023-03-07T06:54:10.798Z,18.23
2023-03-07T07:01:17.782Z,13.05
2023-03-07T07:08:19.750Z,15.70
2023-03-07T07:15:21.800Z,14.77
2023-03-07T07:22:24.281Z,21.98
2023-03-07T07:29:26.537Z,20.65
2023-03-07T07:36:28.656Z,19.98
2023-03-07T07:43:30.669Z,21.33
2023-03-07T07:50:32.636Z,19.08
2023-03-07T07:57:34.703Z,19.45
2023-03-07T08:04:36.770Z,18.65
2023-03-07T08:11:38.703Z,18.13
2023-03-07T08:18:48.211Z,20.70
2023-03-07T08:25:51.809Z,17.52
2023-03-07T08:32:55.022Z,14.18
2023-03-07T08:39:56.945Z,12.65
2023-03-07T08:46:58.916Z,15.80
2023-03-07T08:54:01.014Z,15.43
2023-03-07T09:01:04.117Z,14.65
2023-03-07T09:08:07.255Z,15.00
2023-03-07T09:15:09.839Z,17.15
2023-03-07T09:22:12.010Z,12.70
2023-03-07T09:29:13.952Z,13.50
2023-03-07T09:36:18.417Z,14.55
2023-03-07T09:43:21.603Z,13.60
2023-03-07T09:50:45.708Z,13.95
2023-03-07T09:57:51.731Z,14.45
2023-03-07T10:05:02.194Z,15.20
2023-03-07T10:12:18.573Z,13.18
2023-03-07T10:19:20.584Z,9.35
2023-03-07T10:26:49.227Z,10.45
2023-03-07T10:33:52.673Z,10.20
2023-03-07T10:40:58.065Z,11.02
2023-03-07T10:48:08.013Z,9.32
2023-03-07T10:55:36.796Z,8.10
2023-03-07T11:02:46.955Z,8.43
2023-03-07T11:09:48.962Z,9.55
2023-03-07T11:17:00.999Z,9.95
2023-03-07T11:24:26.987Z,9.70
2023-03-07T11:32:06.120Z,9.40
2023-03-07T11:39:24.879Z,10.68
2023-03-07T11:46:45.540Z,11.30
2023-03-07T11:53:53.795Z,12.05
2023-03-07T12:01:09.881Z,12.15
2023-03-07T12:08:34.016Z,11.98
2023-03-07T12:15:51.924Z,10.13
2023-03-07T12:23:01.812Z,10.75
2023-03-07T12:30:14.378Z,9.65
2023-03-07T12:37:24.251Z,11.10
2023-03-07T12:44:51.814Z,10.38
2023-03-07T12:51:57.669Z,12.68
2023-03-07T12:59:19.924Z,8.57
2023-03-07T13:06:23.140Z,11.52
2023-03-07T13:13:54.164Z,12.23
2023-03-07T13:21:13.682Z,11.75
2023-03-07T13:28:35.971Z,13.52
2023-03-07T13:35:38.491Z,11.85
2023-03-07T13:42:48.269Z,13.40
2023-03-07T13:49:50.374Z,15.38
2023-03-07T13:56:52.491Z,14.85
2023-03-07T14:04:41.757Z,15.90
2023-03-07T14:12:09.932Z,15.77
2023-03-07T14:19:49.492Z,15.77
2023-03-07T14:26:58.041Z,14.47
2023-03-07T14:34:00.134Z,10.82
2023-03-07T14:41:26.073Z,15.95
2023-03-07T14:48:38.358Z,13.27
2023-03-07T14:55:42.421Z,13.57
2023-03-07T15:02:48.258Z,12.20
2023-03-07T15:09:50.260Z,16.23
2023-03-07T15:16:55.208Z,15.52
2023-03-07T15:23:59.449Z,16.23
2023-03-07T15:31:01.987Z,16.55
2023-03-07T15:38:19.408Z,15.73
2023-03-07T15:45:39.134Z,16.25
2023-03-07T16:00:07.215Z,16.63
2023-03-07T16:07:17.724Z,15.52
2023-03-07T16:14:33.777Z,16.73
2023-03-07T16:21:35.789Z,16.17
2023-03-07T16:28:44.087Z,14.15
2023-03-07T16:35:46.684Z,14.65
2023-03-07T16:42:53.853Z,11.95
2023-03-07T16:49:56.385Z,17.45
2023-03-07T16:57:01.877Z,16.83
2023-03-07T17:04:04.158Z,16.15
2023-03-07T17:11:23.473Z,15.05
2023-03-07T17:18:27.929Z,13.50
2023-03-07T17:25:31.651Z,13.90
2023-03-07T17:32:35.981Z,14.70
2023-03-07T17:39:39.067Z,14.75
2023-03-07T17:46:45.299Z,13.88
2023-03-07T17:53:48.284Z,15.43
2023-03-07T18:00:51.121Z,11.55
2023-03-07T18:07:54.699Z,15.55
2023-03-07T18:14:57.698Z,16.58
2023-03-07T18:22:00.107Z,8.98
2023-03-07T18:29:05.063Z,15.00
2023-03-07T18:36:13.305Z,14.45
2023-03-07T18:43:17.062Z,13.93
2023-03-07T18:50:20.552Z,12.32
2023-03-07T18:57:23.467Z,13.73
2023-03-07T19:04:27.221Z,14.57
2023-03-07T19:11:31.047Z,10.90
2023-03-07T19:18:34.602Z,13.23
2023-03-07T19:25:39.164Z,14.15
2023-03-07T19:32:42.843Z,12.50
2023-03-07T19:39:48.945Z,11.40
2023-03-07T19:46:54.008Z,9.38
2023-03-07T19:53:57.800Z,9.48
2023-03-07T20:01:00.790Z,12.40
2023-03-07T20:08:07.323Z,9.85
2023-03-07T20:15:13.416Z,12.98
2023-03-07T20:22:18.684Z,13.63
2023-03-07T20:29:25.142Z,13.60
2023-03-07T20:36:29.938Z,9.85
2023-03-07T20:43:34.090Z,10.65
2023-03-07T20:50:38.021Z,12.57
2023-03-07T20:57:40.905Z,11.10
2023-03-07T21:04:44.709Z,11.73
2023-03-07T21:11:49.923Z,13.27
2023-03-07T21:18:52.847Z,8.23
2023-03-07T21:26:02.250Z,8.88
2023-03-07T21:33:04.646Z,10.80
2023-03-07T21:40:12.156Z,8.63
2023-03-07T21:47:16.135Z,10.07
2023-03-07T21:54:18.427Z,8.77
2023-03-07T22:01:24.624Z,9.88
2023-03-07T22:08:27.005Z,4.00
2023-03-07T22:15:29.038Z,3.05
2023-03-07T22:22:31.095Z,2.95
2023-03-07T22:29:33.532Z,2.90
2023-03-07T22:36:35.604Z,3.28
2023-03-07T22:43:37.883Z,2.60
2023-03-07T22:50:39.911Z,3.22
2023-03-07T22:57:42.021Z,2.42
2023-03-07T23:04:44.152Z,3.13
2023-03-07T23:11:46.687Z,3.45
2023-03-07T23:18:51.064Z,2.33
2023-03-07T23:25:53.115Z,2.72
2023-03-07T23:32:55.342Z,2.90
2023-03-07T23:39:58.690Z,3.17
2023-03-07T23:47:00.826Z,3.47
2023-03-07T23:54:02.888Z,3.03
